Ana Sayfa
METAR-TAF:

METAR-TAF

Havaalanları :

Carmi Municipal Airport

Carmi, Illinois, Amerika Birleşik Devletleri

Enlem: 38-05-22N, Boylam: 088-07-23W, yükseklik: 118 m

Güncel hava durumu gözlemi

Rapor saat 22:15 UTC de 24 dakika önce yapıldı.
Rüzgar güneydan 3 kt
Sıcaklık 33°C
Nem 41%
Basınç 1024 hPa
Görüş mesafesi: 16.1 km
Açık gökyüzü

METAR: KCUL 202215Z AUTO 18003KT 10SM CLR 33/18 A3023 RMK AO2 T03300184

Saat: 17:39 (22:39 UTC)


TAF: eksik

4.000'den fazla havaalanı için hava durumu gözlemleri ve tahminleri (METAR ve TAF raporları).

Kullanılabilir istasyonlar harita üzerinde sarı ve kırmızı noktalarla gösterilir.

İstasyonun adını görmek için fareyi noktanın üzerinde gezdirin.

Sonrasında hava gözlem ve tahminlerini görmek için tıklayın.

Haritayı değiştirmek için: yaklaştırmak için siyah artı işaretli yeşil düğmeye ve uzaklaştırmak için de eksi işaretli düğmeye hızla tıklayın; bitişik haritalar için yeşil okları kullanın.


METAR-TAF: